createdAt,value
2023-04-16T00:01:01.297Z,8.23
2023-04-16T00:03:27.771Z,8.16
2023-04-16T00:05:55.909Z,8.16
2023-04-16T00:08:24.632Z,8.29
2023-04-16T00:10:52.618Z,8.18
2023-04-16T00:13:19.140Z,8.39
2023-04-16T00:15:45.707Z,8.34
2023-04-16T00:18:12.092Z,8.52
2023-04-16T00:20:38.502Z,8.42
2023-04-16T00:23:04.887Z,8.22
2023-04-16T00:25:31.270Z,8.27
2023-04-16T00:27:57.646Z,8.45
2023-04-16T00:30:24.064Z,8.60
2023-04-16T00:32:50.537Z,8.36
2023-04-16T00:35:16.978Z,8.56
2023-04-16T00:37:43.380Z,8.43
2023-04-16T00:40:10.101Z,8.38
2023-04-16T00:42:38.002Z,8.38
2023-04-16T00:45:05.540Z,8.54
2023-04-16T00:47:32.004Z,8.41
2023-04-16T00:49:58.427Z,8.24
2023-04-16T00:52:25.967Z,8.14
2023-04-16T00:54:52.647Z,8.16
2023-04-16T00:57:20.998Z,8.06
2023-04-16T00:59:47.520Z,8.15
2023-04-16T01:02:14.309Z,8.26
2023-04-16T01:04:40.791Z,8.29
2023-04-16T01:07:07.270Z,8.33
2023-04-16T01:09:33.654Z,8.46
2023-04-16T01:12:00.106Z,8.09
2023-04-16T01:14:26.524Z,8.13
2023-04-16T01:16:52.958Z,8.17
2023-04-16T01:19:19.338Z,8.09
2023-04-16T01:21:45.818Z,8.09
2023-04-16T01:24:12.205Z,8.29
2023-04-16T01:26:38.588Z,8.35
2023-04-16T01:29:05.087Z,8.10
2023-04-16T01:31:31.920Z,8.20
2023-04-16T01:33:58.328Z,8.20
2023-04-16T01:36:24.700Z,8.19
2023-04-16T01:38:51.069Z,8.22
2023-04-16T01:41:17.447Z,8.11
2023-04-16T01:43:43.846Z,8.28
2023-04-16T01:46:15.424Z,8.17
2023-04-16T01:48:41.869Z,7.99
2023-04-16T01:51:08.271Z,8.12
2023-04-16T01:53:36.950Z,8.07
2023-04-16T01:56:03.829Z,8.07
2023-04-16T01:58:32.537Z,8.03
2023-04-16T02:00:59.107Z,8.09
2023-04-16T02:03:25.783Z,8.18
2023-04-16T02:05:52.258Z,8.03
2023-04-16T02:08:18.636Z,8.23
2023-04-16T02:10:49.739Z,8.14
2023-04-16T02:13:16.633Z,8.17
2023-04-16T02:15:47.325Z,7.89
2023-04-16T02:18:13.925Z,7.92
2023-04-16T02:20:44.625Z,8.13
2023-04-16T02:23:11.827Z,8.13
2023-04-16T02:25:42.223Z,8.25
2023-04-16T02:28:09.828Z,8.17
2023-04-16T02:30:36.995Z,8.19
2023-04-16T02:33:05.455Z,8.13
2023-04-16T02:35:34.746Z,8.19
2023-04-16T02:38:01.568Z,8.25
2023-04-16T02:40:29.065Z,8.26
2023-04-16T02:42:55.712Z,8.17
2023-04-16T02:45:22.538Z,8.23
2023-04-16T02:47:49.296Z,8.54
2023-04-16T02:50:16.199Z,8.31
2023-04-16T02:52:42.701Z,8.35
2023-04-16T02:55:09.919Z,8.60
2023-04-16T02:57:36.488Z,8.60
2023-04-16T03:00:04.928Z,8.60
2023-04-16T03:02:31.413Z,8.49
2023-04-16T03:04:57.871Z,8.56
2023-04-16T03:07:24.527Z,8.60
2023-04-16T03:09:50.895Z,8.54
2023-04-16T03:12:17.264Z,8.53
2023-04-16T03:14:43.623Z,8.59
2023-04-16T03:17:09.999Z,8.62
2023-04-16T03:19:36.412Z,8.45
2023-04-16T03:22:02.806Z,8.61
2023-04-16T03:24:29.535Z,8.71
2023-04-16T03:26:57.906Z,8.65
2023-04-16T03:29:24.510Z,8.67
2023-04-16T03:31:50.886Z,8.55
2023-04-16T03:34:17.279Z,8.60
2023-04-16T03:36:43.665Z,8.58
2023-04-16T03:39:10.271Z,8.65
2023-04-16T03:41:36.805Z,8.60
2023-04-16T03:44:03.217Z,8.48
2023-04-16T03:46:29.646Z,8.59
2023-04-16T03:48:56.260Z,8.55
2023-04-16T03:51:22.644Z,8.46
2023-04-16T03:53:49.019Z,8.46
2023-04-16T03:56:15.420Z,8.69
2023-04-16T03:58:41.803Z,8.62
2023-04-16T04:01:08.183Z,8.85
2023-04-16T04:03:34.816Z,8.87
2023-04-16T04:06:01.357Z,8.76
2023-04-16T04:08:27.721Z,8.76
2023-04-16T04:10:54.107Z,8.98
2023-04-16T04:13:20.637Z,8.95
2023-04-16T04:15:47.012Z,9.03
2023-04-16T04:18:13.379Z,9.07
2023-04-16T04:20:41.076Z,8.87
2023-04-16T04:23:07.516Z,8.98
2023-04-16T04:25:33.920Z,9.02
2023-04-16T04:28:00.293Z,8.90
2023-04-16T04:30:26.726Z,8.86
2023-04-16T04:32:53.175Z,8.69
2023-04-16T04:35:19.654Z,8.86
2023-04-16T04:37:46.071Z,8.95
2023-04-16T04:40:12.529Z,8.95
2023-04-16T04:42:38.947Z,8.78
2023-04-16T04:45:05.852Z,8.80
2023-04-16T04:47:32.292Z,9.08
2023-04-16T04:49:58.752Z,8.98
2023-04-16T04:52:25.312Z,8.97
2023-04-16T04:54:52.710Z,9.02
2023-04-16T04:57:19.116Z,8.88
2023-04-16T04:59:45.621Z,8.75
2023-04-16T05:02:12.063Z,8.90
2023-04-16T05:04:38.504Z,8.73
2023-04-16T05:07:04.951Z,8.90
2023-04-16T05:09:31.666Z,8.91
2023-04-16T05:11:58.079Z,8.98
2023-04-16T05:14:24.490Z,9.03
2023-04-16T05:16:51.291Z,8.94
2023-04-16T05:19:17.842Z,8.92
2023-04-16T05:21:44.218Z,8.84
2023-04-16T05:24:10.827Z,8.92
2023-04-16T05:26:38.090Z,8.81
2023-04-16T05:29:04.543Z,8.87
2023-04-16T05:31:30.917Z,8.93
2023-04-16T05:33:57.301Z,8.91
2023-04-16T05:36:23.678Z,8.96
2023-04-16T05:38:50.100Z,8.88
2023-04-16T05:41:16.484Z,8.93
2023-04-16T05:43:42.864Z,9.00
2023-04-16T05:46:09.251Z,8.90
2023-04-16T05:48:35.665Z,9.08
2023-04-16T05:51:02.697Z,9.02
2023-04-16T05:53:29.136Z,8.92
2023-04-16T05:55:55.650Z,8.91
2023-04-16T05:58:22.094Z,9.05
2023-04-16T06:00:48.566Z,8.91
2023-04-16T06:03:15.135Z,9.15
2023-04-16T06:05:41.720Z,9.03
2023-04-16T06:08:08.200Z,9.10
2023-04-16T06:10:34.670Z,8.90
2023-04-16T06:13:01.069Z,8.93
2023-04-16T06:15:27.451Z,8.92
2023-04-16T06:17:54.466Z,9.21
2023-04-16T06:20:20.893Z,9.24
2023-04-16T06:22:47.309Z,9.12
2023-04-16T06:25:14.187Z,9.22
2023-04-16T06:27:41.212Z,9.10
2023-04-16T06:30:12.491Z,9.22
2023-04-16T06:32:39.090Z,9.15
2023-04-16T06:35:06.170Z,9.41
2023-04-16T06:37:32.583Z,9.29
2023-04-16T06:39:58.952Z,9.26
2023-04-16T06:42:25.404Z,9.17
2023-04-16T06:44:51.778Z,8.90
2023-04-16T06:47:18.194Z,9.17
2023-04-16T06:49:44.660Z,9.41
2023-04-16T06:52:11.667Z,9.19
2023-04-16T06:54:38.187Z,9.51
2023-04-16T06:57:04.572Z,9.69
2023-04-16T06:59:31.542Z,9.38
2023-04-16T07:01:58.075Z,9.48
2023-04-16T07:04:24.657Z,9.62
2023-04-16T07:06:51.227Z,9.60
2023-04-16T07:09:17.969Z,9.63
2023-04-16T07:11:44.595Z,9.56
2023-04-16T07:14:11.045Z,9.49
2023-04-16T07:16:37.822Z,9.46
2023-04-16T07:19:04.427Z,9.48
2023-04-16T07:21:31.677Z,9.42
2023-04-16T07:23:58.057Z,9.15
2023-04-16T07:26:24.457Z,9.14
2023-04-16T07:28:50.871Z,9.38
2023-04-16T07:31:17.478Z,9.24
2023-04-16T07:33:43.966Z,9.22
2023-04-16T07:36:10.944Z,9.15
2023-04-16T07:38:37.351Z,9.40
2023-04-16T07:41:03.770Z,9.55
2023-04-16T07:43:30.362Z,9.40
2023-04-16T07:45:56.916Z,9.36
2023-04-16T07:48:23.416Z,9.71
2023-04-16T07:50:50.319Z,9.68
2023-04-16T07:53:16.823Z,9.86
2023-04-16T07:55:43.565Z,9.95
2023-04-16T07:58:10.255Z,9.67
2023-04-16T08:00:36.907Z,9.67
2023-04-16T08:03:03.937Z,9.76
2023-04-16T08:05:30.435Z,9.91
2023-04-16T08:07:56.864Z,9.65
2023-04-16T08:10:23.299Z,9.42
2023-04-16T08:12:49.735Z,9.39
2023-04-16T08:15:16.411Z,9.44
2023-04-16T08:17:42.898Z,9.65
2023-04-16T08:20:12.178Z,10.01
2023-04-16T08:22:40.882Z,9.69
2023-04-16T08:25:07.906Z,9.77
2023-04-16T08:27:34.294Z,9.71
2023-04-16T08:30:00.760Z,9.98
2023-04-16T08:32:27.221Z,9.85
2023-04-16T08:34:53.659Z,9.94
2023-04-16T08:37:20.110Z,9.82
2023-04-16T08:39:46.485Z,9.70
2023-04-16T08:42:40.593Z,10.14
2023-04-16T08:45:09.067Z,10.25
2023-04-16T08:47:37.107Z,9.87
2023-04-16T08:50:04.994Z,9.99
2023-04-16T08:52:31.954Z,10.03
2023-04-16T08:55:06.699Z,10.19
2023-04-16T08:57:53.725Z,10.27
2023-04-16T09:00:21.167Z,10.47
2023-04-16T09:02:47.953Z,10.42
2023-04-16T09:05:18.956Z,10.41
2023-04-16T09:07:46.431Z,10.51
2023-04-16T09:10:14.698Z,10.58
2023-04-16T09:12:44.563Z,10.57
2023-04-16T09:15:12.300Z,10.57
2023-04-16T09:17:39.509Z,10.37
2023-04-16T09:20:08.819Z,10.15
2023-04-16T09:22:36.266Z,10.46
2023-04-16T09:25:03.229Z,10.39
2023-04-16T09:27:30.811Z,10.64
2023-04-16T09:29:57.429Z,10.50
2023-04-16T09:32:28.222Z,10.77
2023-04-16T09:34:59.004Z,10.93
2023-04-16T09:37:26.611Z,10.98
2023-04-16T09:39:55.791Z,11.05
2023-04-16T09:42:33.199Z,10.66
2023-04-16T09:45:01.382Z,10.62
2023-04-16T09:47:43.968Z,10.49
2023-04-16T09:50:17.795Z,10.83
2023-04-16T09:52:50.478Z,10.99
2023-04-16T09:55:17.018Z,11.17
2023-04-16T09:57:43.395Z,11.37
2023-04-16T10:00:10.685Z,11.76
2023-04-16T10:02:41.481Z,11.62
2023-04-16T10:05:08.552Z,11.69
2023-04-16T10:07:36.138Z,11.96
2023-04-16T10:10:03.876Z,11.92
2023-04-16T10:12:32.527Z,11.32
2023-04-16T10:14:58.975Z,11.52
2023-04-16T10:17:26.596Z,11.77
2023-04-16T10:19:54.348Z,11.87
2023-04-16T10:22:20.942Z,12.00
2023-04-16T10:24:47.894Z,11.70
2023-04-16T10:27:14.345Z,11.98
2023-04-16T10:29:40.774Z,12.00
2023-04-16T10:32:07.700Z,11.95
2023-04-16T10:34:35.124Z,12.09
2023-04-16T10:37:01.606Z,11.96
2023-04-16T10:39:29.379Z,11.53
2023-04-16T10:42:08.011Z,11.61
2023-04-16T10:44:34.402Z,11.98
2023-04-16T10:47:00.901Z,12.07
2023-04-16T10:49:27.369Z,11.92
2023-04-16T10:52:03.580Z,11.84
2023-04-16T10:54:31.059Z,12.18
2023-04-16T10:56:59.218Z,12.47
2023-04-16T10:59:31.009Z,12.32
2023-04-16T11:01:59.682Z,11.99
2023-04-16T11:04:28.107Z,12.31
2023-04-16T11:07:13.936Z,12.18
2023-04-16T11:09:59.826Z,12.32
2023-04-16T11:12:33.576Z,12.38
2023-04-16T11:15:02.756Z,12.36
2023-04-16T11:17:51.495Z,12.45
2023-04-16T11:20:22.977Z,12.60
2023-04-16T11:22:50.568Z,12.32
2023-04-16T11:25:24.684Z,12.32
2023-04-16T11:27:51.964Z,12.25
2023-04-16T11:30:19.556Z,12.35
2023-04-16T11:32:45.973Z,12.65
2023-04-16T11:35:19.110Z,13.18
2023-04-16T11:37:46.491Z,13.31
2023-04-16T11:40:13.048Z,13.26
2023-04-16T11:42:40.812Z,13.40
2023-04-16T11:45:11.891Z,12.97
2023-04-16T11:47:46.975Z,12.51
2023-04-16T11:50:22.309Z,12.69
2023-04-16T11:52:49.929Z,12.78
2023-04-16T11:55:16.619Z,12.81
2023-04-16T11:57:43.097Z,12.72
2023-04-16T12:00:14.162Z,12.77
2023-04-16T12:02:51.577Z,13.24
2023-04-16T12:05:41.557Z,13.08
2023-04-16T12:08:10.503Z,13.14
2023-04-16T12:10:38.560Z,13.27
2023-04-16T12:13:16.277Z,13.15
2023-04-16T12:15:50.190Z,13.29
2023-04-16T12:18:17.336Z,13.03
2023-04-16T12:20:44.606Z,13.12
2023-04-16T12:23:21.995Z,13.48
2023-04-16T12:25:49.970Z,13.64
2023-04-16T12:28:29.858Z,13.52
2023-04-16T12:30:56.484Z,13.34
2023-04-16T12:33:22.950Z,13.18
2023-04-16T12:35:49.633Z,12.92
2023-04-16T12:38:16.816Z,13.21
2023-04-16T12:40:43.260Z,12.95
2023-04-16T12:43:10.440Z,12.74
2023-04-16T12:45:37.927Z,13.13
2023-04-16T12:48:04.374Z,13.41
2023-04-16T12:50:30.923Z,13.18
2023-04-16T12:52:57.698Z,13.79
2023-04-16T12:55:24.486Z,13.28
2023-04-16T12:57:52.638Z,13.69
2023-04-16T13:00:19.971Z,13.97
2023-04-16T13:02:46.818Z,13.89
2023-04-16T13:05:16.409Z,13.98
2023-04-16T13:07:43.066Z,13.89
2023-04-16T13:10:09.988Z,14.22
2023-04-16T13:12:36.534Z,13.75
2023-04-16T13:15:03.037Z,13.51
2023-04-16T13:17:29.504Z,13.37
2023-04-16T13:19:55.967Z,13.66
2023-04-16T13:22:22.540Z,13.44
2023-04-16T13:24:48.951Z,13.61
2023-04-16T13:27:16.803Z,13.88
2023-04-16T13:29:43.202Z,13.59
2023-04-16T13:32:09.659Z,13.76
2023-04-16T13:34:36.056Z,14.01
2023-04-16T13:37:02.461Z,14.05
2023-04-16T13:39:28.868Z,13.80
2023-04-16T13:41:55.297Z,13.80
2023-04-16T13:44:21.773Z,13.66
2023-04-16T13:46:48.212Z,13.70
2023-04-16T13:49:14.887Z,13.56
2023-04-16T13:51:44.597Z,13.61
2023-04-16T13:54:12.027Z,13.59
2023-04-16T13:56:38.659Z,13.23
2023-04-16T13:59:05.095Z,13.35
2023-04-16T14:01:31.465Z,13.52
2023-04-16T14:03:59.274Z,13.65
2023-04-16T14:06:25.878Z,13.81
2023-04-16T14:08:52.268Z,13.74
2023-04-16T14:11:18.702Z,13.68
2023-04-16T14:13:45.073Z,13.73
2023-04-16T14:16:11.666Z,13.61
2023-04-16T14:18:42.109Z,13.39
2023-04-16T14:21:08.896Z,13.47
2023-04-16T14:23:35.416Z,13.30
2023-04-16T14:26:01.870Z,13.37
2023-04-16T14:28:28.261Z,13.44
2023-04-16T14:30:54.635Z,13.49
2023-04-16T14:33:21.210Z,13.48
2023-04-16T14:35:50.169Z,13.83
2023-04-16T14:38:16.533Z,13.95
2023-04-16T14:40:42.904Z,13.95
2023-04-16T14:43:09.270Z,13.74
2023-04-16T14:45:38.906Z,14.09
2023-04-16T14:48:06.152Z,13.51
2023-04-16T14:50:37.842Z,14.01
2023-04-16T14:53:05.054Z,14.07
2023-04-16T14:55:32.045Z,13.83
2023-04-16T14:57:59.523Z,13.73
2023-04-16T15:00:26.130Z,13.64
2023-04-16T15:02:53.279Z,13.58
2023-04-16T15:05:19.773Z,13.50
2023-04-16T15:07:46.392Z,13.63
2023-04-16T15:10:13.032Z,13.18
2023-04-16T15:12:39.592Z,13.12
2023-04-16T15:15:07.248Z,13.25
2023-04-16T15:17:33.723Z,13.17
2023-04-16T15:20:00.591Z,13.32
2023-04-16T15:22:27.330Z,13.33
2023-04-16T15:24:54.091Z,13.42
2023-04-16T15:27:20.615Z,13.52
2023-04-16T15:29:49.225Z,13.70
2023-04-16T15:32:15.698Z,14.09
2023-04-16T15:34:42.121Z,14.25
2023-04-16T15:37:09.566Z,13.98
2023-04-16T15:39:35.955Z,13.60
2023-04-16T15:42:06.604Z,13.58
2023-04-16T15:44:34.147Z,13.59
2023-04-16T15:47:00.809Z,13.62
2023-04-16T15:49:27.253Z,13.72
2023-04-16T15:51:53.796Z,13.47
2023-04-16T15:54:20.296Z,13.40
2023-04-16T15:56:46.919Z,13.49
2023-04-16T15:59:13.517Z,13.62
2023-04-16T16:01:40.178Z,13.87
2023-04-16T16:04:07.944Z,13.96
2023-04-16T16:06:34.554Z,14.13
2023-04-16T16:09:01.640Z,14.18
2023-04-16T16:11:28.098Z,13.83
2023-04-16T16:13:54.727Z,14.11
2023-04-16T16:16:21.818Z,13.94
2023-04-16T16:18:48.642Z,13.88
2023-04-16T16:21:15.034Z,14.07
2023-04-16T16:23:41.412Z,14.22
2023-04-16T16:26:07.812Z,13.62
2023-04-16T16:28:37.517Z,13.69
2023-04-16T16:31:07.289Z,13.50
2023-04-16T16:33:33.724Z,13.58
2023-04-16T16:36:00.151Z,13.47
2023-04-16T16:38:26.985Z,13.44
2023-04-16T16:40:53.377Z,13.48
2023-04-16T16:43:20.222Z,13.43
2023-04-16T16:45:47.172Z,13.39
2023-04-16T16:48:13.579Z,13.59
2023-04-16T16:50:40.276Z,13.40
2023-04-16T16:53:06.713Z,13.58
2023-04-16T16:55:33.192Z,13.37
2023-04-16T16:57:59.696Z,13.46
2023-04-16T17:00:26.141Z,13.47
2023-04-16T17:02:52.871Z,13.48
2023-04-16T17:05:19.782Z,13.49
2023-04-16T17:07:46.254Z,13.29
2023-04-16T17:10:15.828Z,13.27
2023-04-16T17:12:42.239Z,13.32
2023-04-16T17:15:09.186Z,13.22
2023-04-16T17:17:35.810Z,13.15
2023-04-16T17:20:08.047Z,13.50
2023-04-16T17:22:34.496Z,13.45
2023-04-16T17:25:00.969Z,13.59
2023-04-16T17:27:29.256Z,13.47
2023-04-16T17:29:59.950Z,13.55
2023-04-16T17:32:26.666Z,13.65
2023-04-16T17:34:55.369Z,13.45
2023-04-16T17:37:22.719Z,13.46
2023-04-16T17:39:49.427Z,13.49
2023-04-16T17:42:15.871Z,13.52
2023-04-16T17:44:42.309Z,13.30
2023-04-16T17:47:08.704Z,13.43
2023-04-16T17:49:35.119Z,13.17
2023-04-16T17:52:01.518Z,13.21
2023-04-16T17:54:27.991Z,13.39
2023-04-16T17:56:54.407Z,13.31
2023-04-16T17:59:20.799Z,13.09
2023-04-16T18:01:49.367Z,13.26
2023-04-16T18:04:16.381Z,13.39
2023-04-16T18:06:43.156Z,13.15
2023-04-16T18:09:09.534Z,13.13
2023-04-16T18:11:36.172Z,13.07
2023-04-16T18:14:02.552Z,13.23
2023-04-16T18:16:28.983Z,13.00
2023-04-16T18:18:55.391Z,13.01
2023-04-16T18:21:21.985Z,13.27
2023-04-16T18:23:48.364Z,12.93
2023-04-16T18:26:18.368Z,13.12
2023-04-16T18:28:47.184Z,13.27
2023-04-16T18:31:13.797Z,13.22
2023-04-16T18:33:55.528Z,13.34
2023-04-16T18:36:23.511Z,13.07
2023-04-16T18:39:00.071Z,13.11
2023-04-16T18:41:28.432Z,13.21
2023-04-16T18:43:54.901Z,12.79
2023-04-16T18:46:21.382Z,12.97
2023-04-16T18:48:47.788Z,13.18
2023-04-16T18:51:16.101Z,12.98
2023-04-16T18:53:44.168Z,12.97
2023-04-16T18:56:11.036Z,13.04
2023-04-16T18:58:37.865Z,13.15
2023-04-16T19:01:04.857Z,13.14
2023-04-16T19:03:32.207Z,13.21
2023-04-16T19:05:58.747Z,13.23
2023-04-16T19:08:25.249Z,13.23
2023-04-16T19:10:51.702Z,13.09
2023-04-16T19:13:18.078Z,13.06
2023-04-16T19:15:44.478Z,12.89
2023-04-16T19:18:10.832Z,12.77
2023-04-16T19:20:37.536Z,12.70
2023-04-16T19:23:09.173Z,12.65
2023-04-16T19:25:39.002Z,12.38
2023-04-16T19:28:05.517Z,12.46
2023-04-16T19:30:31.966Z,12.29
2023-04-16T19:32:58.386Z,12.37
2023-04-16T19:35:25.359Z,12.35
2023-04-16T19:37:51.735Z,12.44
2023-04-16T19:40:18.135Z,12.21
2023-04-16T19:42:45.293Z,12.07
2023-04-16T19:45:11.851Z,11.69
2023-04-16T19:47:38.344Z,11.61
2023-04-16T19:50:05.087Z,11.60
2023-04-16T19:52:37.153Z,11.54
2023-04-16T19:55:03.687Z,11.51
2023-04-16T19:57:30.063Z,11.50
2023-04-16T19:59:57.017Z,11.39
2023-04-16T20:02:23.575Z,11.44
2023-04-16T20:04:50.706Z,11.29
2023-04-16T20:07:17.418Z,11.33
2023-04-16T20:09:43.828Z,11.12
2023-04-16T20:12:10.373Z,10.99
2023-04-16T20:14:36.840Z,11.15
2023-04-16T20:17:03.472Z,10.80
2023-04-16T20:19:33.273Z,11.00
2023-04-16T20:21:59.637Z,11.06
2023-04-16T20:24:26.486Z,11.00
2023-04-16T20:26:52.866Z,11.01
2023-04-16T20:29:19.328Z,11.06
2023-04-16T20:31:46.088Z,10.82
2023-04-16T20:34:12.835Z,10.84
2023-04-16T20:36:39.253Z,10.80
2023-04-16T20:39:07.253Z,10.87
2023-04-16T20:41:33.989Z,10.84
2023-04-16T20:44:05.292Z,10.86
2023-04-16T20:46:34.180Z,10.91
2023-04-16T20:49:03.267Z,11.08
2023-04-16T20:51:29.675Z,11.25
2023-04-16T20:53:56.235Z,11.38
2023-04-16T20:56:22.634Z,11.35
2023-04-16T20:58:49.032Z,11.46
2023-04-16T21:01:16.268Z,11.49
2023-04-16T21:03:42.941Z,11.47
2023-04-16T21:06:09.428Z,11.46
2023-04-16T21:08:35.795Z,11.47
2023-04-16T21:11:02.199Z,11.56
2023-04-16T21:13:28.576Z,11.47
2023-04-16T21:15:55.044Z,11.55
2023-04-16T21:18:21.525Z,11.52
2023-04-16T21:20:47.940Z,11.58
2023-04-16T21:23:14.349Z,11.63
2023-04-16T21:25:40.955Z,11.59
2023-04-16T21:28:07.354Z,11.62
2023-04-16T21:30:33.730Z,11.76
2023-04-16T21:33:00.282Z,11.65
2023-04-16T21:35:26.696Z,11.67
2023-04-16T21:37:53.144Z,11.56
2023-04-16T21:40:19.592Z,11.49
2023-04-16T21:42:45.965Z,11.44
2023-04-16T21:45:14.361Z,11.59
2023-04-16T21:47:40.792Z,11.50
2023-04-16T21:50:07.805Z,11.48
2023-04-16T21:52:40.025Z,11.54
2023-04-16T21:55:08.010Z,11.47
2023-04-16T21:57:34.385Z,11.34
2023-04-16T22:00:00.868Z,11.50
2023-04-16T22:02:27.451Z,11.51
2023-04-16T22:04:54.075Z,11.42
2023-04-16T22:07:20.626Z,11.40
2023-04-16T22:09:47.074Z,11.33
2023-04-16T22:12:13.799Z,11.18
2023-04-16T22:14:46.300Z,11.11
2023-04-16T22:17:22.141Z,11.00
2023-04-16T22:19:49.241Z,10.84
2023-04-16T22:22:15.684Z,10.67
2023-04-16T22:24:42.312Z,10.85
2023-04-16T22:27:08.730Z,10.94
2023-04-16T22:29:35.255Z,10.88
2023-04-16T22:32:01.963Z,10.87
2023-04-16T22:34:28.383Z,10.75
2023-04-16T22:36:54.772Z,10.83
2023-04-16T22:39:21.401Z,10.86
2023-04-16T22:41:47.794Z,10.65
2023-04-16T22:44:14.192Z,10.53
2023-04-16T22:46:40.762Z,10.63
2023-04-16T22:49:07.147Z,10.55
2023-04-16T22:51:34.092Z,10.45
2023-04-16T22:54:00.542Z,10.27
2023-04-16T22:56:28.808Z,10.20
2023-04-16T22:58:55.395Z,10.23
2023-04-16T23:01:21.844Z,10.41
2023-04-16T23:03:48.392Z,10.25
2023-04-16T23:06:14.878Z,10.14
2023-04-16T23:08:41.262Z,10.14
2023-04-16T23:11:07.684Z,10.18
2023-04-16T23:13:34.046Z,10.28
2023-04-16T23:16:00.523Z,10.38
2023-04-16T23:18:27.034Z,10.26
2023-04-16T23:20:53.514Z,10.23
2023-04-16T23:23:19.961Z,10.34
2023-04-16T23:25:46.348Z,10.49
2023-04-16T23:28:12.733Z,10.55
2023-04-16T23:30:39.194Z,10.61
2023-04-16T23:33:05.608Z,10.72
2023-04-16T23:35:32.096Z,10.53
2023-04-16T23:37:58.557Z,10.57
2023-04-16T23:40:24.925Z,10.60
2023-04-16T23:42:51.288Z,10.58
2023-04-16T23:45:17.768Z,10.56
2023-04-16T23:47:44.641Z,10.36
2023-04-16T23:50:11.336Z,10.47
2023-04-16T23:52:37.712Z,10.20
2023-04-16T23:55:04.367Z,10.05
2023-04-16T23:57:30.887Z,10.15
2023-04-16T23:59:57.282Z,10.12
